createdAt,value
2022-11-29T00:00:24.818Z,-2.47
2022-11-29T00:02:56.222Z,-2.36
2022-11-29T00:05:27.117Z,-2.21
2022-11-29T00:08:00.211Z,-2.04
2022-11-29T00:10:30.903Z,-2.19
2022-11-29T00:13:01.489Z,-2.50
2022-11-29T00:15:32.124Z,-2.76
2022-11-29T00:18:02.596Z,-2.90
2022-11-29T00:20:33.568Z,-2.98
2022-11-29T00:23:06.787Z,-2.96
2022-11-29T00:25:37.481Z,-2.91
2022-11-29T00:28:08.261Z,-2.82
2022-11-29T00:30:38.915Z,-2.61
2022-11-29T00:33:09.584Z,-2.24
2022-11-29T00:35:40.142Z,-1.50
2022-11-29T00:38:13.256Z,-0.68
2022-11-29T00:40:43.870Z,-0.21
2022-11-29T00:43:14.460Z,-0.02
2022-11-29T00:45:45.055Z,0.02
2022-11-29T00:48:15.597Z,0.02
2022-11-29T00:50:46.112Z,-0.02
2022-11-29T00:53:19.217Z,-0.06
2022-11-29T00:55:51.992Z,-0.09
2022-11-29T00:58:23.666Z,-0.11
2022-11-29T01:00:56.202Z,-0.12
2022-11-29T01:03:27.573Z,-0.11
2022-11-29T01:06:04.090Z,-0.10
2022-11-29T01:08:37.825Z,-0.10
2022-11-29T01:11:10.588Z,-0.09
2022-11-29T01:13:41.434Z,-0.09
2022-11-29T01:16:12.868Z,-0.06
2022-11-29T01:18:43.991Z,-0.04
2022-11-29T01:21:16.582Z,-0.06
2022-11-29T01:23:51.023Z,-0.02
2022-11-29T01:26:24.130Z,0.01
2022-11-29T01:28:56.575Z,0.01
2022-11-29T01:31:29.057Z,0.02
2022-11-29T01:34:01.519Z,0.03
2022-11-29T01:36:32.610Z,0.04
2022-11-29T01:39:07.671Z,0.05
2022-11-29T01:41:40.165Z,0.06
2022-11-29T01:44:45.908Z,0.06
2022-11-29T01:47:16.774Z,0.08
2022-11-29T01:49:50.655Z,0.07
2022-11-29T01:52:25.523Z,0.05
2022-11-29T01:55:01.557Z,0.02
2022-11-29T01:57:38.461Z,0.07
2022-11-29T02:00:12.911Z,0.05
2022-11-29T02:02:46.618Z,0.07
2022-11-29T02:05:19.952Z,0.07
2022-11-29T02:07:55.023Z,0.08
2022-11-29T02:10:41.892Z,0.08
2022-11-29T02:13:21.220Z,0.09
2022-11-29T02:15:59.558Z,0.11
2022-11-29T02:18:43.353Z,0.11
2022-11-29T02:21:30.473Z,0.11
2022-11-29T02:24:32.035Z,0.13
2022-11-29T02:27:30.519Z,0.11
2022-11-29T02:30:20.034Z,0.13
2022-11-29T02:33:37.720Z,0.02
2022-11-29T02:36:26.898Z,0.15
2022-11-29T02:39:26.241Z,0.15
2022-11-29T02:42:14.714Z,0.15
2022-11-29T02:45:07.225Z,0.15
2022-11-29T02:47:52.376Z,0.10
2022-11-29T02:50:37.645Z,0.17
2022-11-29T02:53:18.787Z,0.16
2022-11-29T02:56:00.035Z,0.16
2022-11-29T02:58:38.522Z,0.13
2022-11-29T03:01:17.935Z,0.11
2022-11-29T03:03:57.184Z,0.15
2022-11-29T03:06:37.879Z,0.14
2022-11-29T03:09:19.168Z,0.13
2022-11-29T03:11:55.326Z,0.12
2022-11-29T03:14:30.124Z,0.10
2022-11-29T03:17:10.945Z,0.07
2022-11-29T03:20:02.004Z,-0.06
2022-11-29T03:22:46.386Z,0.01
2022-11-29T03:25:25.377Z,-0.03
2022-11-29T03:28:03.202Z,-0.02
2022-11-29T03:30:37.654Z,-0.15
2022-11-29T03:33:16.168Z,-0.09
2022-11-29T03:35:54.570Z,-0.06
2022-11-29T03:38:31.545Z,-0.08
2022-11-29T03:41:13.260Z,-0.14
2022-11-29T03:43:48.790Z,-0.08
2022-11-29T03:46:22.419Z,-0.08
2022-11-29T03:48:57.787Z,-0.07
2022-11-29T03:51:40.668Z,-0.06
2022-11-29T03:54:13.836Z,-0.04
2022-11-29T03:56:47.621Z,-0.04
2022-11-29T03:59:39.164Z,-0.04
2022-11-29T04:02:41.822Z,-0.04
2022-11-29T04:05:28.370Z,-0.06
2022-11-29T04:08:24.266Z,-0.05
2022-11-29T04:11:36.398Z,-0.05
2022-11-29T04:14:29.331Z,-0.05
2022-11-29T04:17:36.998Z,-0.04
2022-11-29T04:20:48.215Z,-0.05
2022-11-29T04:23:56.591Z,-0.03
2022-11-29T04:27:11.254Z,-0.03
2022-11-29T04:30:04.321Z,-0.01
2022-11-29T04:33:10.481Z,-0.03
2022-11-29T04:36:08.158Z,-0.03
2022-11-29T04:38:51.931Z,-0.03
2022-11-29T04:41:44.243Z,-0.02
2022-11-29T04:44:29.459Z,-0.02
2022-11-29T04:47:18.967Z,-0.02
2022-11-29T04:50:03.597Z,-0.01
2022-11-29T04:52:51.566Z,0.00
2022-11-29T04:55:35.096Z,0.00
2022-11-29T04:58:16.286Z,0.01
2022-11-29T05:00:56.785Z,0.01
2022-11-29T05:03:38.876Z,0.02
2022-11-29T05:06:23.102Z,0.01
2022-11-29T05:09:04.558Z,-0.12
2022-11-29T05:11:47.462Z,-0.47
2022-11-29T05:14:28.610Z,-1.04
2022-11-29T05:17:11.063Z,-1.63
2022-11-29T05:19:58.623Z,-2.20
2022-11-29T05:22:37.375Z,-2.69
2022-11-29T05:25:29.099Z,-3.03
2022-11-29T05:28:09.840Z,-3.20
2022-11-29T05:30:58.047Z,-3.29
2022-11-29T05:33:44.184Z,-3.29
2022-11-29T05:36:27.596Z,-3.19
2022-11-29T05:39:24.449Z,-2.95
2022-11-29T05:42:09.691Z,-2.59
2022-11-29T05:44:45.197Z,-2.38
2022-11-29T05:47:23.746Z,-2.29
2022-11-29T05:50:06.948Z,-2.41
2022-11-29T05:52:52.600Z,-2.64
2022-11-29T05:55:32.545Z,-2.83
2022-11-29T05:58:07.176Z,-2.95
2022-11-29T06:00:51.779Z,-3.08
2022-11-29T06:03:27.838Z,-3.18
2022-11-29T06:06:02.189Z,-2.99
2022-11-29T06:08:42.866Z,-2.81
2022-11-29T06:11:21.935Z,-2.58
2022-11-29T06:14:05.846Z,-2.41
2022-11-29T06:17:08.091Z,-2.15
2022-11-29T06:20:13.310Z,-1.94
2022-11-29T06:23:01.910Z,-1.76
2022-11-29T06:25:48.673Z,-1.58
2022-11-29T06:28:35.465Z,-1.43
2022-11-29T06:31:15.138Z,-1.33
2022-11-29T06:33:56.517Z,-1.15
2022-11-29T06:36:33.020Z,-1.05
2022-11-29T06:39:04.079Z,-1.06
2022-11-29T06:41:37.981Z,-0.85
2022-11-29T06:44:09.837Z,-0.78
2022-11-29T06:46:48.685Z,-0.71
2022-11-29T06:49:27.100Z,-0.62
2022-11-29T06:52:11.459Z,-0.56
2022-11-29T06:54:55.307Z,-0.57
2022-11-29T06:57:40.453Z,-0.44
2022-11-29T07:00:19.351Z,-0.38
2022-11-29T07:03:22.672Z,-0.36
2022-11-29T07:05:56.509Z,-0.33
2022-11-29T07:08:27.804Z,-0.33
2022-11-29T07:10:59.809Z,-0.31
2022-11-29T07:13:33.786Z,-0.31
2022-11-29T07:16:14.412Z,-0.31
2022-11-29T07:18:54.376Z,-0.30
2022-11-29T07:21:38.152Z,-0.30
2022-11-29T07:24:20.399Z,-0.29
2022-11-29T07:26:59.895Z,-0.27
2022-11-29T07:29:43.186Z,-0.23
2022-11-29T07:32:24.546Z,-0.21
2022-11-29T07:35:06.150Z,-0.16
2022-11-29T07:37:43.054Z,-0.13
2022-11-29T07:40:19.461Z,-0.12
2022-11-29T07:42:59.373Z,-0.09
2022-11-29T07:45:36.368Z,-0.10
2022-11-29T07:48:07.626Z,-0.11
2022-11-29T07:50:39.264Z,-0.14
2022-11-29T07:53:09.794Z,-0.15
2022-11-29T07:55:40.392Z,-0.16
2022-11-29T07:58:10.920Z,-0.16
2022-11-29T08:00:45.013Z,-0.17
2022-11-29T08:03:15.890Z,-0.18
2022-11-29T08:05:49.335Z,-0.19
2022-11-29T08:08:19.759Z,-0.19
2022-11-29T08:10:50.490Z,-0.22
2022-11-29T08:13:23.165Z,-0.21
2022-11-29T08:15:56.253Z,-0.16
2022-11-29T08:18:26.858Z,-0.14
2022-11-29T08:20:57.462Z,-0.10
2022-11-29T08:23:27.973Z,-0.05
2022-11-29T08:26:02.737Z,-0.01
2022-11-29T08:28:33.261Z,0.05
2022-11-29T08:31:08.913Z,0.11
2022-11-29T08:33:40.546Z,0.16
2022-11-29T08:36:13.238Z,0.17
2022-11-29T08:38:43.945Z,0.18
2022-11-29T08:41:17.037Z,0.18
2022-11-29T08:43:47.815Z,0.18
2022-11-29T08:46:21.084Z,0.20
2022-11-29T08:48:51.691Z,0.22
2022-11-29T08:51:22.272Z,0.25
2022-11-29T08:53:51.888Z,0.28
2022-11-29T08:59:13.291Z,0.38
2022-11-29T09:01:46.495Z,0.42
2022-11-29T09:04:17.877Z,0.44
2022-11-29T09:06:49.791Z,0.42
2022-11-29T09:09:20.679Z,0.44
2022-11-29T09:11:51.212Z,0.29
2022-11-29T09:14:23.122Z,0.42
2022-11-29T09:16:56.546Z,0.35
2022-11-29T09:19:27.071Z,0.46
2022-11-29T09:21:57.806Z,0.48
2022-11-29T09:24:28.303Z,0.52
2022-11-29T09:26:58.888Z,0.55
2022-11-29T09:29:29.449Z,0.55
2022-11-29T09:32:02.772Z,0.50
2022-11-29T09:34:33.418Z,0.52
2022-11-29T09:37:04.770Z,0.50
2022-11-29T09:39:38.443Z,0.44
2022-11-29T09:42:36.233Z,0.47
2022-11-29T09:45:11.349Z,0.48
2022-11-29T09:48:08.143Z,0.49
2022-11-29T09:50:43.218Z,0.51
2022-11-29T09:53:26.288Z,0.51
2022-11-29T09:56:05.135Z,0.50
2022-11-29T09:58:40.877Z,0.48
2022-11-29T10:01:16.198Z,0.42
2022-11-29T10:03:54.858Z,0.42
2022-11-29T10:06:29.333Z,0.41
2022-11-29T10:09:05.734Z,0.42
2022-11-29T10:11:40.294Z,0.46
2022-11-29T10:14:18.471Z,0.47
2022-11-29T10:16:54.481Z,0.51
2022-11-29T10:19:35.179Z,0.52
2022-11-29T10:22:09.667Z,0.49
2022-11-29T10:24:42.878Z,0.48
2022-11-29T10:27:18.415Z,0.44
2022-11-29T10:29:51.421Z,0.43
2022-11-29T10:32:23.864Z,0.38
2022-11-29T10:34:59.015Z,0.45
2022-11-29T10:37:32.809Z,0.47
2022-11-29T10:40:08.278Z,0.49
2022-11-29T10:42:55.441Z,0.43
2022-11-29T10:45:34.157Z,0.45
2022-11-29T10:48:09.248Z,0.45
2022-11-29T10:50:45.783Z,0.41
2022-11-29T10:53:18.475Z,0.38
2022-11-29T10:55:53.422Z,0.33
2022-11-29T10:58:28.692Z,0.34
2022-11-29T11:01:01.913Z,0.27
2022-11-29T11:03:38.085Z,0.32
2022-11-29T11:06:15.032Z,0.30
2022-11-29T11:08:47.026Z,0.35
2022-11-29T11:11:18.132Z,0.36
2022-11-29T11:14:01.109Z,0.36
2022-11-29T11:16:37.149Z,0.38
2022-11-29T11:19:30.372Z,0.39
2022-11-29T11:22:04.951Z,0.39
2022-11-29T11:24:37.486Z,0.38
2022-11-29T11:27:08.043Z,0.37
2022-11-29T11:29:40.614Z,0.36
2022-11-29T11:32:20.260Z,0.37
2022-11-29T11:34:55.095Z,0.43
2022-11-29T11:37:29.834Z,0.44
2022-11-29T11:40:03.153Z,0.47
2022-11-29T11:42:42.884Z,0.47
2022-11-29T11:45:30.406Z,0.49
2022-11-29T11:48:02.825Z,0.48
2022-11-29T11:50:36.846Z,0.49
2022-11-29T11:53:20.919Z,0.52
2022-11-29T11:56:00.985Z,0.53
2022-11-29T11:58:34.249Z,0.54
2022-11-29T12:01:19.212Z,0.58
2022-11-29T12:03:59.506Z,0.58
2022-11-29T12:06:34.815Z,0.54
2022-11-29T12:09:16.700Z,0.57
2022-11-29T12:11:56.266Z,0.56
2022-11-29T12:14:35.521Z,0.47
2022-11-29T12:17:22.821Z,0.47
2022-11-29T12:20:05.115Z,0.55
2022-11-29T12:22:48.313Z,0.53
2022-11-29T12:25:25.730Z,0.52
2022-11-29T12:27:56.495Z,0.53
2022-11-29T12:30:27.084Z,0.54
2022-11-29T12:33:15.585Z,0.55
2022-11-29T12:36:00.070Z,0.54
2022-11-29T12:38:56.011Z,0.51
2022-11-29T12:41:40.101Z,0.46
2022-11-29T12:44:24.314Z,0.32
2022-11-29T12:47:35.279Z,0.37
2022-11-29T12:50:07.993Z,0.35
2022-11-29T12:52:50.057Z,0.31
2022-11-29T12:55:27.640Z,0.29
2022-11-29T12:58:09.962Z,0.29
2022-11-29T13:00:48.970Z,0.26
2022-11-29T13:03:29.347Z,0.22
2022-11-29T13:06:14.111Z,0.16
2022-11-29T13:09:03.021Z,0.07
2022-11-29T13:11:37.560Z,0.15
2022-11-29T13:17:08.851Z,0.14
2022-11-29T13:19:45.810Z,0.13
2022-11-29T13:22:22.156Z,0.12
2022-11-29T13:24:58.006Z,0.12
2022-11-29T13:27:32.836Z,0.11
2022-11-29T13:30:06.545Z,0.09
2022-11-29T13:32:40.245Z,0.07
2022-11-29T13:35:21.733Z,0.04
2022-11-29T13:37:56.157Z,0.01
2022-11-29T13:40:38.207Z,-0.01
2022-11-29T13:43:22.337Z,-0.03
2022-11-29T13:46:03.179Z,-0.08
2022-11-29T13:48:39.994Z,-0.06
2022-11-29T13:51:30.314Z,-0.01
2022-11-29T13:54:03.425Z,-0.02
2022-11-29T13:56:43.493Z,-0.02
2022-11-29T13:59:21.262Z,-0.05
2022-11-29T14:01:58.538Z,-0.08
2022-11-29T14:04:36.234Z,-0.10
2022-11-29T14:07:10.256Z,-0.10
2022-11-29T14:09:48.865Z,-0.10
2022-11-29T14:12:43.244Z,-0.12
2022-11-29T14:15:27.877Z,-0.12
2022-11-29T14:18:03.078Z,-0.12
2022-11-29T14:21:00.681Z,-0.12
2022-11-29T14:23:46.902Z,-0.11
2022-11-29T14:26:33.492Z,-0.10
2022-11-29T14:29:03.978Z,-0.11
2022-11-29T14:31:56.375Z,-0.10
2022-11-29T14:34:44.318Z,-0.09
2022-11-29T14:37:34.116Z,-0.07
2022-11-29T14:40:14.442Z,-0.04
2022-11-29T14:42:50.458Z,-0.01
2022-11-29T14:45:31.172Z,0.01
2022-11-29T14:48:02.184Z,-0.01
2022-11-29T14:50:41.118Z,-0.03
2022-11-29T14:53:33.216Z,-0.06
2022-11-29T14:56:35.132Z,-0.06
2022-11-29T14:59:35.268Z,-0.04
2022-11-29T15:02:09.995Z,-0.06
2022-11-29T15:04:42.586Z,-0.04
2022-11-29T15:07:21.421Z,-0.01
2022-11-29T15:09:54.116Z,0.01
2022-11-29T15:12:29.268Z,0.01
2022-11-29T15:15:09.741Z,-0.04
2022-11-29T15:17:51.670Z,-0.02
2022-11-29T15:20:55.136Z,-0.05
2022-11-29T15:23:28.505Z,-0.06
2022-11-29T15:26:03.663Z,-0.05
2022-11-29T15:28:34.153Z,-0.04
2022-11-29T15:31:08.294Z,-0.03
2022-11-29T15:33:43.652Z,-0.03
2022-11-29T15:36:21.031Z,-0.02
2022-11-29T15:38:57.432Z,0.00
2022-11-29T15:41:31.844Z,-0.02
2022-11-29T15:44:03.635Z,-0.04
2022-11-29T15:46:36.165Z,-0.06
2022-11-29T15:49:21.172Z,-0.09
2022-11-29T15:51:55.224Z,-0.09
2022-11-29T15:54:34.222Z,-0.07
2022-11-29T15:57:10.060Z,-0.09
2022-11-29T15:59:44.228Z,-0.05
2022-11-29T16:02:22.843Z,-0.05
2022-11-29T16:04:56.946Z,-0.04
2022-11-29T16:07:32.518Z,-0.05
2022-11-29T16:10:13.260Z,-0.08
2022-11-29T16:12:55.301Z,-0.09
2022-11-29T16:15:32.181Z,-0.22
2022-11-29T16:18:07.277Z,-0.11
2022-11-29T16:20:37.944Z,-0.10
2022-11-29T16:23:16.918Z,-0.09
2022-11-29T16:26:01.863Z,-0.08
2022-11-29T16:28:37.652Z,-0.07
2022-11-29T16:31:08.310Z,-0.19
2022-11-29T16:33:41.281Z,-0.12
2022-11-29T16:36:18.084Z,-0.12
2022-11-29T16:38:50.215Z,-0.14
2022-11-29T16:41:35.236Z,-0.17
2022-11-29T16:44:07.124Z,-0.21
2022-11-29T16:46:42.183Z,-0.16
2022-11-29T16:49:35.106Z,-0.17
2022-11-29T16:52:25.742Z,-0.13
2022-11-29T16:54:56.442Z,-0.11
2022-11-29T16:57:30.423Z,-0.11
2022-11-29T17:00:01.126Z,-0.12
2022-11-29T17:02:32.890Z,-0.13
2022-11-29T17:05:03.465Z,-0.15
2022-11-29T17:07:36.981Z,-0.17
2022-11-29T17:10:12.071Z,-0.19
2022-11-29T17:12:48.188Z,-0.24
2022-11-29T17:15:19.618Z,-0.16
2022-11-29T17:17:50.196Z,-0.16
2022-11-29T17:20:20.914Z,-0.13
2022-11-29T17:22:51.437Z,-0.11
2022-11-29T17:25:22.171Z,-0.10
2022-11-29T17:27:55.315Z,-0.11
2022-11-29T17:30:26.095Z,-0.11
2022-11-29T17:32:59.620Z,-0.12
2022-11-29T17:35:30.030Z,-0.21
2022-11-29T17:38:02.032Z,-0.17
2022-11-29T17:40:32.638Z,-0.17
2022-11-29T17:43:05.753Z,-0.18
2022-11-29T17:45:36.500Z,-0.17
2022-11-29T17:48:07.512Z,-0.16
2022-11-29T17:50:40.350Z,-0.16
2022-11-29T17:53:10.978Z,-0.17
2022-11-29T17:55:41.562Z,-0.19
2022-11-29T17:58:16.291Z,-0.20
2022-11-29T18:00:47.022Z,-0.22
2022-11-29T18:03:17.598Z,-0.24
2022-11-29T18:05:48.303Z,-0.24
2022-11-29T18:08:18.793Z,-0.23
2022-11-29T18:10:49.348Z,-0.23
2022-11-29T18:13:22.447Z,-0.22
2022-11-29T18:15:53.168Z,-0.21
2022-11-29T18:18:23.567Z,-0.20
2022-11-29T18:20:54.202Z,-0.21
2022-11-29T18:23:24.759Z,-0.21
2022-11-29T18:26:00.434Z,-0.23
2022-11-29T18:28:33.598Z,-0.25
2022-11-29T18:31:10.063Z,-0.26
2022-11-29T18:33:40.557Z,-0.27
2022-11-29T18:36:13.683Z,-0.27
2022-11-29T18:38:45.534Z,-0.25
2022-11-29T18:41:18.510Z,-0.25
2022-11-29T18:43:52.566Z,-0.27
2022-11-29T18:46:26.664Z,-0.54
2022-11-29T18:48:57.235Z,-0.90
2022-11-29T18:51:27.792Z,-1.38
2022-11-29T18:53:59.129Z,-1.80
2022-11-29T18:56:32.936Z,-2.14
2022-11-29T18:59:08.743Z,-2.54
2022-11-29T19:01:41.460Z,-2.90
2022-11-29T19:04:13.972Z,-3.14
2022-11-29T19:06:45.500Z,-3.40
2022-11-29T19:09:17.581Z,-3.40
2022-11-29T19:11:48.943Z,-3.48
2022-11-29T19:14:22.985Z,-3.46
2022-11-29T19:16:53.862Z,-3.32
2022-11-29T19:19:24.405Z,-3.04
2022-11-29T19:21:54.990Z,-2.99
2022-11-29T19:24:25.448Z,-3.18
2022-11-29T19:26:56.544Z,-3.38
2022-11-29T19:29:29.697Z,-3.49
2022-11-29T19:32:00.423Z,-3.51
2022-11-29T19:34:30.955Z,-3.51
2022-11-29T19:37:01.606Z,-3.49
2022-11-29T19:39:34.191Z,-3.47
2022-11-29T19:42:04.881Z,-3.43
2022-11-29T19:45:08.722Z,-3.36
2022-11-29T19:47:28.560Z,-3.25
2022-11-29T19:50:02.329Z,-3.14
2022-11-29T19:52:34.905Z,-3.02
2022-11-29T19:55:05.866Z,-2.85
2022-11-29T19:57:36.629Z,-2.65
2022-11-29T20:00:13.523Z,-2.48
2022-11-29T20:02:46.143Z,-2.68
2022-11-29T20:05:16.824Z,-2.92
2022-11-29T20:07:47.639Z,-3.10
2022-11-29T20:10:20.615Z,-3.21
2022-11-29T20:12:51.174Z,-3.23
2022-11-29T20:15:24.333Z,-3.19
2022-11-29T20:17:55.906Z,-3.11
2022-11-29T20:20:26.487Z,-3.04
2022-11-29T20:22:57.210Z,-2.88
2022-11-29T20:25:28.063Z,-2.77
2022-11-29T20:27:58.814Z,-2.67
2022-11-29T20:30:32.033Z,-2.67
2022-11-29T20:33:02.904Z,-2.71
2022-11-29T20:35:33.921Z,-2.69
2022-11-29T20:38:15.063Z,-2.53
2022-11-29T20:41:02.756Z,-2.40
2022-11-29T20:43:44.448Z,-2.62
2022-11-29T20:46:18.313Z,-2.92
2022-11-29T20:48:49.724Z,-3.10
2022-11-29T20:51:20.963Z,-3.17
2022-11-29T20:53:51.667Z,-3.18
2022-11-29T20:56:22.627Z,-3.14
2022-11-29T20:58:53.357Z,-3.04
2022-11-29T21:01:26.615Z,-2.90
2022-11-29T21:03:57.304Z,-2.75
2022-11-29T21:06:28.165Z,-2.61
2022-11-29T21:08:58.888Z,-2.59
2022-11-29T21:11:30.265Z,-2.65
2022-11-29T21:14:04.088Z,-2.74
2022-11-29T21:16:37.936Z,-2.84
2022-11-29T21:19:09.327Z,-2.90
2022-11-29T21:21:45.824Z,-2.77
2022-11-29T21:24:30.666Z,-2.53
2022-11-29T21:27:01.547Z,-2.55
2022-11-29T21:29:32.775Z,-2.65
2022-11-29T21:32:06.587Z,-2.52
2022-11-29T21:34:37.145Z,-2.40
2022-11-29T21:37:07.989Z,-2.25
2022-11-29T21:39:39.052Z,-2.11
2022-11-29T21:42:09.589Z,-1.95
2022-11-29T21:44:40.185Z,-1.81
2022-11-29T21:47:13.385Z,-1.71
2022-11-29T21:49:44.213Z,-1.53
2022-11-29T21:52:20.691Z,-1.40
2022-11-29T21:54:53.417Z,-1.27
2022-11-29T21:57:24.046Z,-1.19
2022-11-29T21:59:54.691Z,-1.09
2022-11-29T22:02:27.843Z,-1.08
2022-11-29T22:04:58.678Z,-1.09
2022-11-29T22:07:29.217Z,-1.14
2022-11-29T22:10:09.997Z,-1.21
2022-11-29T22:12:51.903Z,-1.40
2022-11-29T22:15:25.061Z,-1.39
2022-11-29T22:17:59.211Z,-1.38
2022-11-29T22:20:29.956Z,-1.40
2022-11-29T22:23:00.496Z,-1.44
2022-11-29T22:25:31.029Z,-1.47
2022-11-29T22:28:01.511Z,-1.43
2022-11-29T22:30:32.145Z,-1.42
2022-11-29T22:33:10.318Z,-1.39
2022-11-29T22:35:46.295Z,-1.47
2022-11-29T22:38:16.779Z,-1.51
2022-11-29T22:40:47.537Z,-1.53
2022-11-29T22:43:18.045Z,-1.57
2022-11-29T22:45:48.602Z,-1.60
2022-11-29T22:48:21.653Z,-1.63
2022-11-29T22:50:52.312Z,-1.64
2022-11-29T22:53:22.911Z,-1.66
2022-11-29T22:55:53.559Z,-1.67
2022-11-29T22:58:24.277Z,-1.66
2022-11-29T23:00:55.343Z,-1.67
2022-11-29T23:03:28.556Z,-1.68
2022-11-29T23:06:05.027Z,-1.69
2022-11-29T23:08:35.750Z,-1.71
2022-11-29T23:11:07.415Z,-1.72
2022-11-29T23:13:39.866Z,-1.69
2022-11-29T23:16:12.560Z,-1.90
2022-11-29T23:18:46.549Z,-2.19
2022-11-29T23:21:19.734Z,-2.44
2022-11-29T23:23:56.111Z,-2.61
2022-11-29T23:26:29.617Z,-2.74
2022-11-29T23:29:01.376Z,-2.83
2022-11-29T23:31:32.037Z,-2.93
2022-11-29T23:34:05.684Z,-2.98
2022-11-29T23:36:36.501Z,-3.05
2022-11-29T23:39:08.340Z,-2.99
2022-11-29T23:41:39.679Z,-2.83
2022-11-29T23:44:11.281Z,-2.57
2022-11-29T23:46:42.042Z,-2.70
2022-11-29T23:49:15.203Z,-2.96
2022-11-29T23:51:45.747Z,-3.20
2022-11-29T23:54:16.325Z,-3.38
2022-11-29T23:56:46.869Z,-3.46
2022-11-29T23:59:17.733Z,-3.52
